createdAt,value
2024-02-01T00:00:15.080Z,102370.75
2024-02-01T00:03:16.990Z,102372.16
2024-02-01T00:06:19.028Z,102376.47
2024-02-01T00:09:20.939Z,102378.22
2024-02-01T00:12:22.726Z,102366.53
2024-02-01T00:15:24.572Z,102347.50
2024-02-01T00:18:26.438Z,102348.75
2024-02-01T00:21:28.298Z,102349.97
2024-02-01T00:24:30.055Z,102348.97
2024-02-01T00:27:31.838Z,102333.84
2024-02-01T00:30:33.683Z,102325.50
2024-02-01T00:33:35.611Z,102324.13
2024-02-01T00:36:37.496Z,102331.59
2024-02-01T00:39:39.267Z,102322.66
2024-02-01T00:42:41.145Z,102321.06
2024-02-01T00:45:43.001Z,102327.72
2024-02-01T00:48:45.015Z,102326.56
2024-02-01T00:51:46.904Z,102318.66
2024-02-01T00:54:48.692Z,102321.53
2024-02-01T00:57:50.475Z,102315.91
2024-02-01T01:00:52.371Z,102324.75
2024-02-01T01:03:56.074Z,102322.97
2024-02-01T01:06:58.069Z,102312.13
2024-02-01T01:09:59.820Z,102326.34
2024-02-01T01:13:01.622Z,102313.16
2024-02-01T01:16:03.433Z,102308.16
2024-02-01T01:19:05.456Z,102307.38
2024-02-01T01:22:07.365Z,102299.91
2024-02-01T01:25:09.193Z,102284.88
2024-02-01T01:28:11.020Z,102278.06
2024-02-01T01:31:12.819Z,102265.81
2024-02-01T01:34:15.090Z,102261.22
2024-02-01T01:37:16.957Z,102261.44
2024-02-01T01:40:18.843Z,102268.44
2024-02-01T01:43:20.609Z,102267.22
2024-02-01T01:46:22.632Z,102263.03
2024-02-01T01:49:24.905Z,102253.69
2024-02-01T01:52:28.952Z,102259.09
2024-02-01T01:55:30.912Z,102259.88
2024-02-01T01:58:34.825Z,102254.28
2024-02-01T02:01:38.299Z,102243.50
2024-02-01T02:04:41.820Z,102251.75
2024-02-01T02:07:43.633Z,102240.97
2024-02-01T02:10:45.464Z,102244.75
2024-02-01T02:13:47.834Z,102238.78
2024-02-01T02:16:49.604Z,102243.59
2024-02-01T02:19:51.704Z,102236.00
2024-02-01T02:22:56.320Z,102233.00
2024-02-01T02:25:58.219Z,102224.81
2024-02-01T02:29:00.000Z,102222.41
2024-02-01T02:32:02.135Z,102218.41
2024-02-01T02:35:04.212Z,102211.59
2024-02-01T02:38:06.044Z,102215.78
2024-02-01T02:41:07.851Z,102211.56
2024-02-01T02:44:12.333Z,102207.75
2024-02-01T02:47:14.300Z,102201.59
2024-02-01T02:50:16.191Z,102191.53
2024-02-01T02:53:18.054Z,102198.38
2024-02-01T02:56:19.805Z,102195.16
2024-02-01T02:59:23.442Z,102187.38
2024-02-01T03:02:25.183Z,102180.41
2024-02-01T03:05:27.735Z,102177.00
2024-02-01T03:08:29.471Z,102179.16
2024-02-01T03:11:31.275Z,102172.97
2024-02-01T03:14:33.083Z,102168.19
2024-02-01T03:17:35.725Z,102170.19
2024-02-01T03:20:38.210Z,102163.75
2024-02-01T03:23:42.836Z,102158.97
2024-02-01T03:26:45.112Z,102160.78
2024-02-01T03:29:47.456Z,102157.38
2024-02-01T03:32:49.372Z,102153.00
2024-02-01T03:35:51.321Z,102153.59
2024-02-01T03:38:53.161Z,102146.00
2024-02-01T03:41:56.544Z,102144.38
2024-02-01T03:44:58.371Z,102143.00
2024-02-01T03:48:00.443Z,102139.59
2024-02-01T03:51:03.424Z,102131.59
2024-02-01T03:54:10.198Z,102130.78
2024-02-01T03:57:15.863Z,102132.59
2024-02-01T04:00:29.583Z,102134.78
2024-02-01T04:03:32.466Z,102143.00
2024-02-01T04:06:37.857Z,102137.56
2024-02-01T04:09:39.761Z,102143.59
2024-02-01T04:12:41.513Z,102133.56
2024-02-01T04:15:43.913Z,102141.59
2024-02-01T04:18:45.944Z,102134.38
2024-02-01T04:21:49.081Z,102150.59
2024-02-01T04:24:50.944Z,102138.41
2024-02-01T04:27:55.744Z,102140.78
2024-02-01T04:30:58.477Z,102138.38
2024-02-01T04:34:01.710Z,102131.78
2024-02-01T04:37:06.401Z,102128.81
2024-02-01T04:40:09.490Z,102120.78
2024-02-01T04:43:12.245Z,102122.81
2024-02-01T04:46:14.182Z,102107.78
2024-02-01T04:49:16.338Z,102123.16
2024-02-01T04:52:18.360Z,102118.94
2024-02-01T04:55:20.140Z,102119.34
2024-02-01T04:58:22.242Z,102121.31
2024-02-01T05:01:25.485Z,102119.91
2024-02-01T05:04:27.384Z,102114.91
2024-02-01T05:07:32.016Z,102110.34
2024-02-01T05:10:33.819Z,102108.94
2024-02-01T05:13:35.676Z,102121.53
2024-02-01T05:16:37.556Z,102120.94
2024-02-01T05:19:39.346Z,102116.16
2024-02-01T05:22:42.364Z,102109.75
2024-02-01T05:25:44.162Z,102114.31
2024-02-01T05:28:45.916Z,102106.56
2024-02-01T05:31:50.729Z,102106.88
2024-02-01T05:34:52.462Z,102107.69
2024-02-01T05:37:55.691Z,102103.91
2024-02-01T05:40:58.004Z,102093.47
2024-02-01T05:43:59.757Z,102094.28
2024-02-01T05:47:06.911Z,102098.66
2024-02-01T05:50:12.792Z,102101.84
2024-02-01T05:53:14.608Z,102099.31
2024-02-01T05:56:16.376Z,102101.47
2024-02-01T05:59:19.751Z,102099.72
2024-02-01T06:02:21.535Z,102099.53
2024-02-01T06:05:23.924Z,102098.72
2024-02-01T06:08:25.915Z,102103.91
2024-02-01T06:11:27.960Z,102094.16
2024-02-01T06:14:29.764Z,102105.16
2024-02-01T06:17:32.058Z,102103.97
2024-02-01T06:20:36.031Z,102106.38
2024-02-01T06:23:37.925Z,102104.59
2024-02-01T06:26:39.859Z,102095.97
2024-02-01T06:29:42.058Z,102101.78
2024-02-01T06:32:44.240Z,102098.97
2024-02-01T06:35:46.569Z,102087.19
2024-02-01T06:39:00.625Z,102086.38
2024-02-01T06:42:05.696Z,102091.59
2024-02-01T06:45:29.503Z,102093.19
2024-02-01T06:48:43.595Z,102097.19
2024-02-01T06:51:47.814Z,102103.38
2024-02-01T06:55:11.777Z,102103.38
2024-02-01T06:58:19.092Z,102099.16
2024-02-01T07:01:47.735Z,102099.75
2024-02-01T07:04:54.944Z,102088.56
2024-02-01T07:08:03.801Z,102076.75
2024-02-01T07:11:12.504Z,102059.28
2024-02-01T07:14:16.911Z,102048.03
2024-02-01T07:17:27.374Z,102051.00
2024-02-01T07:20:50.051Z,102035.44
2024-02-01T07:24:48.121Z,102011.63
2024-02-01T07:28:10.848Z,102056.59
2024-02-01T07:31:31.271Z,102070.31
2024-02-01T07:34:51.712Z,102052.19
2024-02-01T07:38:13.061Z,102048.03
2024-02-01T07:41:33.545Z,102017.56
2024-02-01T07:44:53.723Z,102028.09
2024-02-01T07:48:14.260Z,102017.63
2024-02-01T07:51:34.810Z,102026.28
2024-02-01T07:55:01.688Z,102036.75
2024-02-01T07:58:09.339Z,102034.31
2024-02-01T08:01:19.626Z,102022.44
2024-02-01T08:04:41.757Z,102038.91
2024-02-01T08:07:50.230Z,102034.25
2024-02-01T08:10:57.941Z,102039.75
2024-02-01T08:13:59.935Z,102031.66
2024-02-01T08:17:06.927Z,102030.28
2024-02-01T08:20:13.044Z,102028.81
2024-02-01T08:23:20.307Z,102030.84
2024-02-01T08:26:22.973Z,102032.78
2024-02-01T08:29:37.167Z,102024.69
2024-02-01T08:32:43.329Z,102019.16
2024-02-01T08:35:45.475Z,102015.03
2024-02-01T08:38:47.457Z,102003.66
2024-02-01T08:41:49.292Z,102014.31
2024-02-01T08:44:51.158Z,102002.09
2024-02-01T08:47:53.815Z,102014.41
2024-02-01T08:50:56.381Z,102018.09
2024-02-01T08:53:58.335Z,102017.34
2024-02-01T08:57:01.770Z,102006.53
2024-02-01T09:00:22.327Z,102006.53
2024-02-01T09:03:32.672Z,102000.38
2024-02-01T09:06:34.589Z,102003.38
2024-02-01T09:09:37.292Z,102005.59
2024-02-01T09:12:39.083Z,102003.09
2024-02-01T09:15:41.223Z,102010.09
2024-02-01T09:18:43.635Z,102005.78
2024-02-01T09:21:45.593Z,102007.81
2024-02-01T09:24:47.450Z,102012.97
2024-02-01T09:27:52.987Z,102006.16
2024-02-01T09:30:56.471Z,102002.88
2024-02-01T09:33:58.692Z,101985.53
2024-02-01T09:37:00.615Z,101974.63
2024-02-01T09:40:02.552Z,101960.19
2024-02-01T09:43:04.553Z,101953.16
2024-02-01T09:46:09.450Z,101962.59
2024-02-01T09:49:17.980Z,101974.88
2024-02-01T09:52:24.001Z,101968.41
2024-02-01T09:55:26.417Z,101973.28
2024-02-01T09:58:29.320Z,101951.91
2024-02-01T10:01:32.258Z,101942.47
2024-02-01T10:04:34.847Z,101930.28
2024-02-01T10:07:37.007Z,101927.59
2024-02-01T10:10:40.124Z,101925.38
2024-02-01T10:13:48.617Z,101916.63
2024-02-01T10:16:56.064Z,101908.28
2024-02-01T10:20:00.895Z,101912.94
2024-02-01T10:23:06.569Z,101904.78
2024-02-01T10:26:19.502Z,101887.16
2024-02-01T10:29:21.837Z,101887.94
2024-02-01T10:32:30.662Z,101896.28
2024-02-01T10:35:35.386Z,101909.66
2024-02-01T10:38:37.418Z,101881.34
2024-02-01T10:41:48.557Z,101862.28
2024-02-01T10:44:53.054Z,101856.97
2024-02-01T10:47:56.380Z,101872.53
2024-02-01T10:50:58.242Z,101865.56
2024-02-01T10:54:00.511Z,101881.94
2024-02-01T10:57:06.936Z,101863.94
2024-02-01T11:00:21.489Z,101873.66
2024-02-01T11:03:28.874Z,101838.97
2024-02-01T11:06:33.182Z,101846.22
2024-02-01T11:09:39.349Z,101858.78
2024-02-01T11:12:41.397Z,101844.16
2024-02-01T11:15:53.789Z,101836.94
2024-02-01T11:18:58.254Z,101831.41
2024-02-01T11:22:04.967Z,101824.06
2024-02-01T11:25:09.082Z,101826.13
2024-02-01T11:28:30.403Z,101816.31
2024-02-01T11:31:42.058Z,101827.94
2024-02-01T11:34:55.986Z,101836.06
2024-02-01T11:38:08.077Z,101833.91
2024-02-01T11:41:11.031Z,101822.16
2024-02-01T11:44:16.380Z,101819.13
2024-02-01T11:47:27.600Z,101813.00
2024-02-01T11:50:31.856Z,101806.75
2024-02-01T11:53:34.047Z,101800.31
2024-02-01T11:56:35.900Z,101807.25
2024-02-01T11:59:38.458Z,101798.69
2024-02-01T12:02:41.703Z,101792.34
2024-02-01T12:05:46.887Z,101799.78
2024-02-01T12:08:51.267Z,101794.78
2024-02-01T12:11:55.698Z,101781.91
2024-02-01T12:14:58.678Z,101781.13
2024-02-01T12:18:02.033Z,101777.84
2024-02-01T12:21:12.658Z,101762.22
2024-02-01T12:24:19.172Z,101761.44
2024-02-01T12:27:21.304Z,101765.56
2024-02-01T12:30:27.688Z,101766.47
2024-02-01T12:33:29.709Z,101763.63
2024-02-01T12:36:32.179Z,101761.63
2024-02-01T12:39:41.836Z,101752.69
2024-02-01T12:42:46.485Z,101754.59
2024-02-01T12:45:49.238Z,101761.88
2024-02-01T12:48:54.568Z,101759.53
2024-02-01T12:52:05.576Z,101752.88
2024-02-01T12:55:08.654Z,101758.72
2024-02-01T12:58:10.494Z,101759.41
2024-02-01T13:01:13.873Z,101754.88
2024-02-01T13:04:15.980Z,101758.03
2024-02-01T13:07:17.792Z,101757.56
2024-02-01T13:10:19.698Z,101749.66
2024-02-01T13:13:21.558Z,101739.34
2024-02-01T13:16:25.942Z,101749.56
2024-02-01T13:19:27.822Z,101745.88
2024-02-01T13:22:30.342Z,101746.72
2024-02-01T13:25:32.192Z,101744.72
2024-02-01T13:28:34.217Z,101731.31
2024-02-01T13:31:39.762Z,101728.75
2024-02-01T13:34:42.792Z,101725.69
2024-02-01T13:37:47.808Z,101728.00
2024-02-01T13:40:49.836Z,101723.13
2024-02-01T13:43:51.859Z,101725.22
2024-02-01T13:46:53.687Z,101723.34
2024-02-01T13:49:55.631Z,101715.41
2024-02-01T13:52:58.858Z,101710.25
2024-02-01T13:56:00.886Z,101703.47
2024-02-01T13:59:03.218Z,101701.06
2024-02-01T14:02:05.240Z,101698.72
2024-02-01T14:05:07.213Z,101700.47
2024-02-01T14:08:10.156Z,101700.78
2024-02-01T14:11:12.628Z,101699.75
2024-02-01T14:14:14.521Z,101704.75
2024-02-01T14:17:16.278Z,101698.09
2024-02-01T14:20:18.288Z,101698.34
2024-02-01T14:23:20.080Z,101695.47
2024-02-01T14:26:23.497Z,101692.81
2024-02-01T14:29:25.270Z,101693.06
2024-02-01T14:32:27.069Z,101695.97
2024-02-01T14:35:28.888Z,101686.25
2024-02-01T14:38:30.759Z,101677.81
2024-02-01T14:41:32.533Z,101676.50
2024-02-01T14:44:35.637Z,101676.16
2024-02-01T14:47:38.419Z,101671.66
2024-02-01T14:50:40.367Z,101667.16
2024-02-01T14:53:42.294Z,101666.38
2024-02-01T14:56:44.082Z,101653.97
2024-02-01T14:59:46.068Z,101658.47
2024-02-01T15:02:47.832Z,101664.22
2024-02-01T15:05:49.810Z,101674.97
2024-02-01T15:08:59.454Z,101674.66
2024-02-01T15:12:01.532Z,101666.72
2024-02-01T15:15:03.595Z,101676.16
2024-02-01T15:18:06.052Z,101676.38
2024-02-01T15:21:13.587Z,101669.31
2024-02-01T15:24:16.256Z,101651.53
2024-02-01T15:27:19.731Z,101647.56
2024-02-01T15:30:22.587Z,101657.28
2024-02-01T15:33:25.175Z,101647.31
2024-02-01T15:36:27.661Z,101648.63
2024-02-01T15:39:32.247Z,101653.78
2024-02-01T15:42:34.147Z,101669.63
2024-02-01T15:45:36.722Z,101664.09
2024-02-01T15:48:42.258Z,101670.41
2024-02-01T15:51:44.600Z,101670.69
2024-02-01T15:54:46.632Z,101678.00
2024-02-01T15:57:48.562Z,101671.44
2024-02-01T16:00:50.388Z,101672.81
2024-02-01T16:03:52.300Z,101681.44
2024-02-01T16:06:54.772Z,101686.41
2024-02-01T16:09:56.651Z,101687.00
2024-02-01T16:12:58.440Z,101695.66
2024-02-01T16:16:00.294Z,101692.19
2024-02-01T16:19:05.513Z,101691.97
2024-02-01T16:22:11.297Z,101695.97
2024-02-01T16:25:39.224Z,101697.75
2024-02-01T16:28:41.357Z,101697.75
2024-02-01T16:31:43.226Z,101696.41
2024-02-01T16:34:47.165Z,101690.56
2024-02-01T16:37:49.040Z,101699.25
2024-02-01T16:40:51.404Z,101700.25
2024-02-01T16:43:54.721Z,101698.66
2024-02-01T16:46:56.594Z,101700.44
2024-02-01T16:50:05.467Z,101701.50
2024-02-01T16:53:09.842Z,101702.84
2024-02-01T16:56:12.310Z,101703.31
2024-02-01T16:59:20.744Z,101707.25
2024-02-01T17:02:34.695Z,101705.97
2024-02-01T17:05:36.842Z,101699.91
2024-02-01T17:08:59.171Z,101700.41
2024-02-01T17:12:03.075Z,101700.41
2024-02-01T17:15:06.004Z,101706.41
2024-02-01T17:18:08.153Z,101700.88
2024-02-01T17:21:10.231Z,101692.47
2024-02-01T17:24:21.224Z,101705.88
2024-02-01T17:27:34.881Z,101702.94
2024-02-01T17:31:03.666Z,101705.84
2024-02-01T17:34:32.777Z,101705.78
2024-02-01T17:37:40.446Z,101703.16
2024-02-01T17:40:58.403Z,101699.50
2024-02-01T17:44:08.947Z,101706.28
2024-02-01T17:47:11.087Z,101710.38
2024-02-01T17:50:39.893Z,101709.13
2024-02-01T17:53:42.302Z,101701.47
2024-02-01T17:56:46.160Z,101708.84
2024-02-01T17:59:49.022Z,101709.00
2024-02-01T18:02:51.355Z,101704.25
2024-02-01T18:05:53.620Z,101701.38
2024-02-01T18:08:56.222Z,101705.53
2024-02-01T18:12:03.511Z,101706.34
2024-02-01T18:15:21.353Z,101714.66
2024-02-01T18:18:28.015Z,101707.47
2024-02-01T18:21:30.538Z,101706.25
2024-02-01T18:24:40.787Z,101699.94
2024-02-01T18:27:42.815Z,101691.75
2024-02-01T18:30:45.122Z,101689.66
2024-02-01T18:33:52.288Z,101693.56
2024-02-01T18:36:55.978Z,101683.81
2024-02-01T18:39:58.954Z,101692.63
2024-02-01T18:43:08.926Z,101695.78
2024-02-01T18:46:34.328Z,101701.59
2024-02-01T18:49:38.102Z,101690.00
2024-02-01T18:52:40.056Z,101690.97
2024-02-01T18:55:42.873Z,101691.53
2024-02-01T18:58:45.389Z,101692.03
2024-02-01T19:01:49.769Z,101696.66
2024-02-01T19:04:57.100Z,101692.25
2024-02-01T19:08:03.703Z,101686.41
2024-02-01T19:11:05.579Z,101690.44
2024-02-01T19:14:14.445Z,101690.69
2024-02-01T19:17:16.805Z,101688.25
2024-02-01T19:20:24.236Z,101693.44
2024-02-01T19:23:28.687Z,101696.78
2024-02-01T19:26:33.035Z,101682.19
2024-02-01T19:29:35.106Z,101685.34
2024-02-01T19:32:46.938Z,101691.44
2024-02-01T19:35:50.112Z,101683.47
2024-02-01T19:38:52.818Z,101684.78
2024-02-01T19:41:55.053Z,101686.13
2024-02-01T19:44:56.851Z,101680.91
2024-02-01T19:47:58.778Z,101677.31
2024-02-01T19:51:03.740Z,101678.34
2024-02-01T19:54:05.959Z,101678.94
2024-02-01T19:57:10.448Z,101686.94
2024-02-01T20:00:13.195Z,101683.22
2024-02-01T20:03:17.134Z,101685.34
2024-02-01T20:06:21.814Z,101682.63
2024-02-01T20:09:23.850Z,101685.31
2024-02-01T20:12:25.913Z,101677.13
2024-02-01T20:15:29.041Z,101685.78
2024-02-01T20:18:31.202Z,101679.69
2024-02-01T20:21:36.649Z,101685.69
2024-02-01T20:24:42.236Z,101675.34
2024-02-01T20:27:44.448Z,101672.78
2024-02-01T20:30:46.769Z,101673.63
2024-02-01T20:33:56.020Z,101684.13
2024-02-01T20:37:03.552Z,101675.41
2024-02-01T20:40:40.113Z,101678.75
2024-02-01T20:43:42.002Z,101683.25
2024-02-01T20:46:50.629Z,101670.13
2024-02-01T20:49:53.559Z,101670.94
2024-02-01T20:52:55.418Z,101681.41
2024-02-01T20:55:57.235Z,101679.28
2024-02-01T20:59:03.664Z,101676.34
2024-02-01T21:02:30.286Z,101686.59
2024-02-01T21:05:39.067Z,101683.66
2024-02-01T21:08:42.740Z,101682.84
2024-02-01T21:11:50.714Z,101684.69
2024-02-01T21:14:52.988Z,101689.53
2024-02-01T21:17:56.582Z,101692.97
2024-02-01T21:21:04.608Z,101704.97
2024-02-01T21:24:06.904Z,101709.25
2024-02-01T21:27:16.414Z,101703.84
2024-02-01T21:30:19.007Z,101712.81
2024-02-01T21:33:21.489Z,101724.22
2024-02-01T21:36:23.609Z,101711.63
2024-02-01T21:39:49.958Z,101721.06
2024-02-01T21:43:01.894Z,101716.69
2024-02-01T21:46:11.071Z,101710.22
2024-02-01T21:49:13.848Z,101713.06
2024-02-01T21:52:18.548Z,101712.22
2024-02-01T21:55:20.502Z,101710.94
2024-02-01T21:58:22.337Z,101717.53
2024-02-01T22:01:24.198Z,101715.53
2024-02-01T22:04:26.185Z,101715.06
2024-02-01T22:07:28.342Z,101721.72
2024-02-01T22:10:30.251Z,101717.34
2024-02-01T22:13:32.004Z,101717.50
2024-02-01T22:16:33.858Z,101716.22
2024-02-01T22:19:35.728Z,101719.56
2024-02-01T22:22:40.740Z,101721.22
2024-02-01T22:25:42.943Z,101728.97
2024-02-01T22:28:44.977Z,101731.44
2024-02-01T22:31:47.132Z,101732.19
2024-02-01T22:34:49.157Z,101731.50
2024-02-01T22:37:50.979Z,101734.00
2024-02-01T22:40:52.839Z,101727.31
2024-02-01T22:43:54.685Z,101728.97
2024-02-01T22:46:58.816Z,101728.41
2024-02-01T22:50:00.751Z,101740.38
2024-02-01T22:53:02.906Z,101734.91
2024-02-01T22:56:05.061Z,101734.66
2024-02-01T22:59:07.121Z,101730.69
2024-02-01T23:02:08.973Z,101742.91
2024-02-01T23:05:10.874Z,101742.81
2024-02-01T23:08:12.821Z,101738.13
2024-02-01T23:11:14.734Z,101749.94
2024-02-01T23:14:16.552Z,101759.03
2024-02-01T23:17:19.167Z,101760.69
2024-02-01T23:20:20.921Z,101762.63
2024-02-01T23:23:23.147Z,101753.28
2024-02-01T23:26:26.768Z,101753.63
2024-02-01T23:29:28.558Z,101747.03
2024-02-01T23:32:30.412Z,101747.13
2024-02-01T23:35:32.191Z,101759.44
2024-02-01T23:38:33.944Z,101759.44
2024-02-01T23:41:35.778Z,101758.31
2024-02-01T23:44:37.561Z,101763.44
2024-02-01T23:47:40.123Z,101782.78
2024-02-01T23:50:42.088Z,101776.66
2024-02-01T23:53:43.857Z,101778.94
2024-02-01T23:56:45.672Z,101779.84
2024-02-01T23:59:47.657Z,101787.03
